sensor_id;sensor_type;location;lat;lon;timestamp;P1;durP1;ratioP1;P2;durP2;ratioP2
32080;SDS011;18593;51.426;7.030;2023-05-07T00:00:34;7.30;;;3.28;;
32080;SDS011;18593;51.426;7.030;2023-05-07T00:03:01;6.50;;;2.92;;
32080;SDS011;18593;51.426;7.030;2023-05-07T00:05:29;7.22;;;2.90;;
32080;SDS011;18593;51.426;7.030;2023-05-07T00:07:57;6.13;;;3.17;;
32080;SDS011;18593;51.426;7.030;2023-05-07T00:10:25;7.35;;;2.80;;
32080;SDS011;18593;51.426;7.030;2023-05-07T00:12:52;10.80;;;3.72;;
32080;SDS011;18593;51.426;7.030;2023-05-07T00:15:19;6.82;;;3.10;;
32080;SDS011;18593;51.426;7.030;2023-05-07T00:17:47;5.97;;;3.17;;
32080;SDS011;18593;51.426;7.030;2023-05-07T00:20:14;7.72;;;3.25;;
32080;SDS011;18593;51.426;7.030;2023-05-07T00:22:41;5.65;;;3.25;;
32080;SDS011;18593;51.426;7.030;2023-05-07T00:25:10;5.40;;;3.17;;
32080;SDS011;18593;51.426;7.030;2023-05-07T00:27:37;9.27;;;3.47;;
32080;SDS011;18593;51.426;7.030;2023-05-07T00:30:05;5.70;;;3.00;;
32080;SDS011;18593;51.426;7.030;2023-05-07T00:32:33;5.32;;;3.10;;
32080;SDS011;18593;51.426;7.030;2023-05-07T00:35:01;6.47;;;2.70;;
32080;SDS011;18593;51.426;7.030;2023-05-07T00:37:29;4.95;;;3.03;;
32080;SDS011;18593;51.426;7.030;2023-05-07T00:39:56;5.97;;;3.33;;
32080;SDS011;18593;51.426;7.030;2023-05-07T00:42:25;5.22;;;3.22;;
32080;SDS011;18593;51.426;7.030;2023-05-07T00:44:53;6.80;;;3.35;;
32080;SDS011;18593;51.426;7.030;2023-05-07T00:47:20;6.60;;;3.35;;
32080;SDS011;18593;51.426;7.030;2023-05-07T00:49:47;6.90;;;4.22;;
32080;SDS011;18593;51.426;7.030;2023-05-07T00:52:15;8.25;;;4.60;;
32080;SDS011;18593;51.426;7.030;2023-05-07T00:54:43;7.97;;;4.60;;
32080;SDS011;18593;51.426;7.030;2023-05-07T00:57:11;9.90;;;5.03;;
32080;SDS011;18593;51.426;7.030;2023-05-07T00:59:40;10.93;;;5.20;;
32080;SDS011;18593;51.426;7.030;2023-05-07T01:02:08;10.25;;;5.55;;
32080;SDS011;18593;51.426;7.030;2023-05-07T01:04:36;8.25;;;4.60;;
32080;SDS011;18593;51.426;7.030;2023-05-07T01:07:03;8.20;;;4.70;;
32080;SDS011;18593;51.426;7.030;2023-05-07T01:09:32;9.48;;;4.60;;
32080;SDS011;18593;51.426;7.030;2023-05-07T01:12:00;8.63;;;4.72;;
32080;SDS011;18593;51.426;7.030;2023-05-07T01:14:28;7.55;;;3.90;;
32080;SDS011;18593;51.426;7.030;2023-05-07T01:16:57;10.40;;;4.68;;
32080;SDS011;18593;51.426;7.030;2023-05-07T01:19:25;9.30;;;5.05;;
32080;SDS011;18593;51.426;7.030;2023-05-07T01:21:56;8.10;;;4.30;;
32080;SDS011;18593;51.426;7.030;2023-05-07T01:24:35;11.05;;;5.10;;
32080;SDS011;18593;51.426;7.030;2023-05-07T01:27:05;7.88;;;4.72;;
32080;SDS011;18593;51.426;7.030;2023-05-07T01:29:33;6.93;;;4.28;;
32080;SDS011;18593;51.426;7.030;2023-05-07T01:32:01;7.68;;;4.43;;
32080;SDS011;18593;51.426;7.030;2023-05-07T01:34:30;7.10;;;5.00;;
32080;SDS011;18593;51.426;7.030;2023-05-07T01:37:00;8.85;;;4.43;;
32080;SDS011;18593;51.426;7.030;2023-05-07T01:39:29;7.85;;;4.60;;
32080;SDS011;18593;51.426;7.030;2023-05-07T01:41:58;11.45;;;5.35;;
32080;SDS011;18593;51.426;7.030;2023-05-07T01:44:26;8.25;;;4.47;;
32080;SDS011;18593;51.426;7.030;2023-05-07T01:46:54;6.30;;;3.97;;
32080;SDS011;18593;51.426;7.030;2023-05-07T01:49:23;7.10;;;4.30;;
32080;SDS011;18593;51.426;7.030;2023-05-07T01:51:50;10.48;;;4.20;;
32080;SDS011;18593;51.426;7.030;2023-05-07T01:54:18;13.07;;;4.47;;
32080;SDS011;18593;51.426;7.030;2023-05-07T01:56:46;7.88;;;4.00;;
32080;SDS011;18593;51.426;7.030;2023-05-07T01:59:15;9.23;;;4.22;;
32080;SDS011;18593;51.426;7.030;2023-05-07T02:01:43;7.57;;;4.38;;
32080;SDS011;18593;51.426;7.030;2023-05-07T02:04:11;8.55;;;4.65;;
32080;SDS011;18593;51.426;7.030;2023-05-07T02:06:38;10.50;;;4.95;;
32080;SDS011;18593;51.426;7.030;2023-05-07T02:09:07;8.55;;;5.10;;
32080;SDS011;18593;51.426;7.030;2023-05-07T02:11:36;8.63;;;5.00;;
32080;SDS011;18593;51.426;7.030;2023-05-07T02:14:04;7.47;;;4.50;;
32080;SDS011;18593;51.426;7.030;2023-05-07T02:16:33;6.97;;;4.72;;
32080;SDS011;18593;51.426;7.030;2023-05-07T02:19:00;6.90;;;4.10;;
32080;SDS011;18593;51.426;7.030;2023-05-07T02:21:27;7.80;;;4.20;;
32080;SDS011;18593;51.426;7.030;2023-05-07T02:23:54;8.25;;;4.93;;
32080;SDS011;18593;51.426;7.030;2023-05-07T02:26:22;7.50;;;4.30;;
32080;SDS011;18593;51.426;7.030;2023-05-07T02:28:49;7.88;;;4.45;;
32080;SDS011;18593;51.426;7.030;2023-05-07T02:31:17;7.18;;;4.38;;
32080;SDS011;18593;51.426;7.030;2023-05-07T02:33:45;7.72;;;5.47;;
32080;SDS011;18593;51.426;7.030;2023-05-07T02:36:13;8.82;;;5.10;;
32080;SDS011;18593;51.426;7.030;2023-05-07T02:38:47;9.40;;;4.63;;
32080;SDS011;18593;51.426;7.030;2023-05-07T02:41:14;8.38;;;4.57;;
32080;SDS011;18593;51.426;7.030;2023-05-07T02:43:42;7.68;;;5.00;;
32080;SDS011;18593;51.426;7.030;2023-05-07T02:46:09;9.02;;;5.00;;
32080;SDS011;18593;51.426;7.030;2023-05-07T02:48:41;7.93;;;4.65;;
32080;SDS011;18593;51.426;7.030;2023-05-07T02:51:09;6.30;;;4.57;;
32080;SDS011;18593;51.426;7.030;2023-05-07T02:53:39;7.15;;;4.90;;
32080;SDS011;18593;51.426;7.030;2023-05-07T02:56:06;8.10;;;4.65;;
32080;SDS011;18593;51.426;7.030;2023-05-07T02:58:34;7.82;;;4.88;;
32080;SDS011;18593;51.426;7.030;2023-05-07T03:01:02;8.60;;;4.40;;
32080;SDS011;18593;51.426;7.030;2023-05-07T03:03:50;9.75;;;4.72;;
32080;SDS011;18593;51.426;7.030;2023-05-07T03:06:19;6.95;;;5.00;;
32080;SDS011;18593;51.426;7.030;2023-05-07T03:08:46;9.27;;;5.15;;
32080;SDS011;18593;51.426;7.030;2023-05-07T03:11:13;8.77;;;4.82;;
32080;SDS011;18593;51.426;7.030;2023-05-07T03:13:40;9.80;;;5.20;;
32080;SDS011;18593;51.426;7.030;2023-05-07T03:16:07;9.07;;;5.32;;
32080;SDS011;18593;51.426;7.030;2023-05-07T03:18:35;9.38;;;5.82;;
32080;SDS011;18593;51.426;7.030;2023-05-07T03:21:02;7.80;;;5.38;;
32080;SDS011;18593;51.426;7.030;2023-05-07T03:23:31;8.32;;;5.55;;
32080;SDS011;18593;51.426;7.030;2023-05-07T03:25:58;8.45;;;5.43;;
32080;SDS011;18593;51.426;7.030;2023-05-07T03:28:25;10.85;;;5.15;;
32080;SDS011;18593;51.426;7.030;2023-05-07T03:30:57;10.35;;;5.57;;
32080;SDS011;18593;51.426;7.030;2023-05-07T03:33:25;12.15;;;5.45;;
32080;SDS011;18593;51.426;7.030;2023-05-07T03:35:53;8.25;;;5.60;;
32080;SDS011;18593;51.426;7.030;2023-05-07T03:38:23;8.82;;;5.93;;
32080;SDS011;18593;51.426;7.030;2023-05-07T03:40:52;8.38;;;5.50;;
32080;SDS011;18593;51.426;7.030;2023-05-07T03:43:19;9.65;;;6.28;;
32080;SDS011;18593;51.426;7.030;2023-05-07T03:45:53;13.30;;;5.80;;
32080;SDS011;18593;51.426;7.030;2023-05-07T03:48:24;11.75;;;6.07;;
32080;SDS011;18593;51.426;7.030;2023-05-07T03:50:54;10.63;;;6.22;;
32080;SDS011;18593;51.426;7.030;2023-05-07T03:53:22;9.85;;;5.20;;
32080;SDS011;18593;51.426;7.030;2023-05-07T03:55:49;9.98;;;5.88;;
32080;SDS011;18593;51.426;7.030;2023-05-07T03:58:18;10.35;;;6.45;;
32080;SDS011;18593;51.426;7.030;2023-05-07T04:00:46;8.70;;;5.95;;
32080;SDS011;18593;51.426;7.030;2023-05-07T04:03:26;9.68;;;5.93;;
32080;SDS011;18593;51.426;7.030;2023-05-07T04:05:56;7.65;;;5.82;;
32080;SDS011;18593;51.426;7.030;2023-05-07T04:08:23;10.50;;;6.70;;
32080;SDS011;18593;51.426;7.030;2023-05-07T04:10:58;10.50;;;6.40;;
32080;SDS011;18593;51.426;7.030;2023-05-07T04:13:29;10.48;;;5.95;;
32080;SDS011;18593;51.426;7.030;2023-05-07T04:15:58;10.00;;;6.18;;
32080;SDS011;18593;51.426;7.030;2023-05-07T04:18:28;9.32;;;6.00;;
32080;SDS011;18593;51.426;7.030;2023-05-07T04:20:56;9.27;;;6.38;;
32080;SDS011;18593;51.426;7.030;2023-05-07T04:23:23;8.82;;;5.70;;
32080;SDS011;18593;51.426;7.030;2023-05-07T04:25:51;8.30;;;6.50;;
32080;SDS011;18593;51.426;7.030;2023-05-07T04:28:25;9.13;;;6.43;;
32080;SDS011;18593;51.426;7.030;2023-05-07T04:30:52;11.15;;;6.57;;
32080;SDS011;18593;51.426;7.030;2023-05-07T04:33:20;10.77;;;6.78;;
32080;SDS011;18593;51.426;7.030;2023-05-07T04:35:49;12.05;;;6.50;;
32080;SDS011;18593;51.426;7.030;2023-05-07T04:38:17;8.93;;;6.35;;
32080;SDS011;18593;51.426;7.030;2023-05-07T04:40:46;12.88;;;7.38;;
32080;SDS011;18593;51.426;7.030;2023-05-07T04:43:18;11.73;;;7.50;;
32080;SDS011;18593;51.426;7.030;2023-05-07T04:45:50;11.98;;;8.40;;
32080;SDS011;18593;51.426;7.030;2023-05-07T04:48:19;16.00;;;8.43;;
32080;SDS011;18593;51.426;7.030;2023-05-07T04:50:47;11.98;;;8.18;;
32080;SDS011;18593;51.426;7.030;2023-05-07T04:53:16;10.57;;;7.97;;
32080;SDS011;18593;51.426;7.030;2023-05-07T04:55:44;10.65;;;7.18;;
32080;SDS011;18593;51.426;7.030;2023-05-07T04:58:11;11.13;;;7.25;;
32080;SDS011;18593;51.426;7.030;2023-05-07T05:00:40;11.98;;;8.20;;
32080;SDS011;18593;51.426;7.030;2023-05-07T05:03:10;11.43;;;7.53;;
32080;SDS011;18593;51.426;7.030;2023-05-07T05:05:38;10.40;;;7.78;;
32080;SDS011;18593;51.426;7.030;2023-05-07T05:08:06;13.35;;;8.18;;
32080;SDS011;18593;51.426;7.030;2023-05-07T05:10:36;12.63;;;8.50;;
32080;SDS011;18593;51.426;7.030;2023-05-07T05:13:04;14.38;;;9.30;;
32080;SDS011;18593;51.426;7.030;2023-05-07T05:15:32;14.10;;;9.05;;
32080;SDS011;18593;51.426;7.030;2023-05-07T05:17:59;13.63;;;9.73;;
32080;SDS011;18593;51.426;7.030;2023-05-07T05:20:28;14.90;;;8.75;;
32080;SDS011;18593;51.426;7.030;2023-05-07T05:22:56;11.70;;;8.68;;
32080;SDS011;18593;51.426;7.030;2023-05-07T05:25:23;10.75;;;7.95;;
32080;SDS011;18593;51.426;7.030;2023-05-07T05:27:50;12.52;;;8.38;;
32080;SDS011;18593;51.426;7.030;2023-05-07T05:30:17;13.57;;;8.98;;
32080;SDS011;18593;51.426;7.030;2023-05-07T05:32:45;11.75;;;7.95;;
32080;SDS011;18593;51.426;7.030;2023-05-07T05:35:13;17.52;;;8.23;;
32080;SDS011;18593;51.426;7.030;2023-05-07T05:37:43;11.43;;;8.20;;
32080;SDS011;18593;51.426;7.030;2023-05-07T05:40:11;12.23;;;7.68;;
32080;SDS011;18593;51.426;7.030;2023-05-07T05:42:38;10.43;;;7.07;;
32080;SDS011;18593;51.426;7.030;2023-05-07T05:45:07;14.05;;;8.32;;
32080;SDS011;18593;51.426;7.030;2023-05-07T05:47:35;15.60;;;7.63;;
32080;SDS011;18593;51.426;7.030;2023-05-07T05:50:04;14.35;;;8.32;;
32080;SDS011;18593;51.426;7.030;2023-05-07T05:52:32;10.73;;;7.70;;
32080;SDS011;18593;51.426;7.030;2023-05-07T05:55:01;13.27;;;8.68;;
32080;SDS011;18593;51.426;7.030;2023-05-07T05:57:29;11.60;;;7.90;;
32080;SDS011;18593;51.426;7.030;2023-05-07T05:59:57;11.45;;;8.80;;
32080;SDS011;18593;51.426;7.030;2023-05-07T06:02:24;11.43;;;8.23;;
32080;SDS011;18593;51.426;7.030;2023-05-07T06:04:51;12.93;;;9.10;;
32080;SDS011;18593;51.426;7.030;2023-05-07T06:07:21;13.50;;;9.30;;
32080;SDS011;18593;51.426;7.030;2023-05-07T06:09:48;12.75;;;8.98;;
32080;SDS011;18593;51.426;7.030;2023-05-07T06:12:17;13.32;;;8.70;;
32080;SDS011;18593;51.426;7.030;2023-05-07T06:14:46;12.33;;;8.97;;
32080;SDS011;18593;51.426;7.030;2023-05-07T06:17:13;15.73;;;9.05;;
32080;SDS011;18593;51.426;7.030;2023-05-07T06:19:40;12.48;;;9.10;;
32080;SDS011;18593;51.426;7.030;2023-05-07T06:22:09;12.63;;;8.75;;
32080;SDS011;18593;51.426;7.030;2023-05-07T06:24:37;13.30;;;8.73;;
32080;SDS011;18593;51.426;7.030;2023-05-07T06:27:05;11.48;;;8.43;;
32080;SDS011;18593;51.426;7.030;2023-05-07T06:29:34;12.52;;;8.18;;
32080;SDS011;18593;51.426;7.030;2023-05-07T06:32:06;11.57;;;8.35;;
32080;SDS011;18593;51.426;7.030;2023-05-07T06:34:34;14.13;;;7.85;;
32080;SDS011;18593;51.426;7.030;2023-05-07T06:37:01;11.77;;;8.07;;
32080;SDS011;18593;51.426;7.030;2023-05-07T06:39:47;10.35;;;8.05;;
32080;SDS011;18593;51.426;7.030;2023-05-07T06:42:15;12.00;;;7.80;;
32080;SDS011;18593;51.426;7.030;2023-05-07T06:44:47;11.20;;;7.50;;
32080;SDS011;18593;51.426;7.030;2023-05-07T06:47:16;9.07;;;6.68;;
32080;SDS011;18593;51.426;7.030;2023-05-07T06:49:47;11.23;;;6.65;;
32080;SDS011;18593;51.426;7.030;2023-05-07T06:52:17;9.70;;;6.07;;
32080;SDS011;18593;51.426;7.030;2023-05-07T06:54:45;9.85;;;6.03;;
32080;SDS011;18593;51.426;7.030;2023-05-07T06:57:15;9.60;;;6.72;;
32080;SDS011;18593;51.426;7.030;2023-05-07T06:59:42;9.95;;;6.60;;
32080;SDS011;18593;51.426;7.030;2023-05-07T07:02:11;9.63;;;5.90;;
32080;SDS011;18593;51.426;7.030;2023-05-07T07:04:39;10.55;;;6.00;;
32080;SDS011;18593;51.426;7.030;2023-05-07T07:07:09;7.72;;;5.40;;
32080;SDS011;18593;51.426;7.030;2023-05-07T07:09:38;11.30;;;5.70;;
32080;SDS011;18593;51.426;7.030;2023-05-07T07:12:06;11.90;;;5.78;;
32080;SDS011;18593;51.426;7.030;2023-05-07T07:14:36;7.15;;;5.40;;
32080;SDS011;18593;51.426;7.030;2023-05-07T07:17:03;9.02;;;6.05;;
32080;SDS011;18593;51.426;7.030;2023-05-07T07:19:32;9.25;;;5.65;;
32080;SDS011;18593;51.426;7.030;2023-05-07T07:22:02;9.07;;;5.72;;
32080;SDS011;18593;51.426;7.030;2023-05-07T07:24:29;10.48;;;5.90;;
32080;SDS011;18593;51.426;7.030;2023-05-07T07:27:00;8.02;;;5.30;;
32080;SDS011;18593;51.426;7.030;2023-05-07T07:29:28;8.32;;;5.15;;
32080;SDS011;18593;51.426;7.030;2023-05-07T07:31:55;8.20;;;5.20;;
32080;SDS011;18593;51.426;7.030;2023-05-07T07:34:23;7.38;;;4.53;;
32080;SDS011;18593;51.426;7.030;2023-05-07T07:36:52;8.95;;;5.28;;
32080;SDS011;18593;51.426;7.030;2023-05-07T07:39:19;8.80;;;4.78;;
32080;SDS011;18593;51.426;7.030;2023-05-07T07:41:49;8.43;;;4.55;;
32080;SDS011;18593;51.426;7.030;2023-05-07T07:44:17;8.20;;;5.28;;
32080;SDS011;18593;51.426;7.030;2023-05-07T07:46:50;7.97;;;4.78;;
32080;SDS011;18593;51.426;7.030;2023-05-07T07:49:19;7.57;;;4.60;;
32080;SDS011;18593;51.426;7.030;2023-05-07T07:51:46;7.38;;;4.85;;
32080;SDS011;18593;51.426;7.030;2023-05-07T07:54:16;9.57;;;4.60;;
32080;SDS011;18593;51.426;7.030;2023-05-07T07:56:43;7.15;;;4.50;;
32080;SDS011;18593;51.426;7.030;2023-05-07T07:59:12;6.95;;;4.20;;
32080;SDS011;18593;51.426;7.030;2023-05-07T08:01:43;7.32;;;4.20;;
32080;SDS011;18593;51.426;7.030;2023-05-07T08:04:10;7.15;;;4.80;;
32080;SDS011;18593;51.426;7.030;2023-05-07T08:06:40;6.80;;;3.88;;
32080;SDS011;18593;51.426;7.030;2023-05-07T08:09:08;6.75;;;4.25;;
32080;SDS011;18593;51.426;7.030;2023-05-07T08:11:39;10.40;;;4.35;;
32080;SDS011;18593;51.426;7.030;2023-05-07T08:14:08;7.18;;;3.17;;
32080;SDS011;18593;51.426;7.030;2023-05-07T08:16:35;9.63;;;3.70;;
32080;SDS011;18593;51.426;7.030;2023-05-07T08:19:03;6.30;;;3.47;;
32080;SDS011;18593;51.426;7.030;2023-05-07T08:21:30;6.82;;;3.90;;
32080;SDS011;18593;51.426;7.030;2023-05-07T08:23:58;6.65;;;3.40;;
32080;SDS011;18593;51.426;7.030;2023-05-07T08:26:25;8.57;;;3.78;;
32080;SDS011;18593;51.426;7.030;2023-05-07T08:28:54;11.23;;;3.30;;
32080;SDS011;18593;51.426;7.030;2023-05-07T08:31:21;7.00;;;3.20;;
32080;SDS011;18593;51.426;7.030;2023-05-07T08:33:49;6.60;;;3.30;;
32080;SDS011;18593;51.426;7.030;2023-05-07T08:36:16;8.20;;;3.33;;
32080;SDS011;18593;51.426;7.030;2023-05-07T08:38:45;4.95;;;2.90;;
32080;SDS011;18593;51.426;7.030;2023-05-07T08:41:12;10.43;;;3.22;;
32080;SDS011;18593;51.426;7.030;2023-05-07T08:43:41;5.05;;;2.60;;
32080;SDS011;18593;51.426;7.030;2023-05-07T08:46:18;6.50;;;2.78;;
32080;SDS011;18593;51.426;7.030;2023-05-07T08:48:50;7.57;;;3.28;;
32080;SDS011;18593;51.426;7.030;2023-05-07T08:51:19;5.90;;;2.65;;
32080;SDS011;18593;51.426;7.030;2023-05-07T08:53:49;4.80;;;2.42;;
32080;SDS011;18593;51.426;7.030;2023-05-07T08:56:29;4.82;;;2.67;;
32080;SDS011;18593;51.426;7.030;2023-05-07T08:58:56;5.10;;;2.53;;
32080;SDS011;18593;51.426;7.030;2023-05-07T09:01:26;7.00;;;2.50;;
32080;SDS011;18593;51.426;7.030;2023-05-07T09:03:54;6.97;;;2.33;;
32080;SDS011;18593;51.426;7.030;2023-05-07T09:06:22;4.13;;;2.42;;
32080;SDS011;18593;51.426;7.030;2023-05-07T09:08:50;4.22;;;2.50;;
32080;SDS011;18593;51.426;7.030;2023-05-07T09:11:20;5.10;;;2.53;;
32080;SDS011;18593;51.426;7.030;2023-05-07T09:13:52;4.68;;;2.50;;
32080;SDS011;18593;51.426;7.030;2023-05-07T09:16:23;4.88;;;2.63;;
32080;SDS011;18593;51.426;7.030;2023-05-07T09:18:54;7.25;;;2.70;;
32080;SDS011;18593;51.426;7.030;2023-05-07T09:21:23;4.50;;;2.40;;
32080;SDS011;18593;51.426;7.030;2023-05-07T09:23:54;5.25;;;2.28;;
32080;SDS011;18593;51.426;7.030;2023-05-07T09:26:29;7.20;;;2.60;;
32080;SDS011;18593;51.426;7.030;2023-05-07T09:28:59;6.00;;;2.67;;
32080;SDS011;18593;51.426;7.030;2023-05-07T09:31:27;8.95;;;2.60;;
32080;SDS011;18593;51.426;7.030;2023-05-07T09:33:56;5.30;;;2.17;;
32080;SDS011;18593;51.426;7.030;2023-05-07T09:36:27;4.18;;;2.17;;
32080;SDS011;18593;51.426;7.030;2023-05-07T09:38:55;4.13;;;2.30;;
32080;SDS011;18593;51.426;7.030;2023-05-07T09:41:25;5.88;;;2.20;;
32080;SDS011;18593;51.426;7.030;2023-05-07T09:44:08;5.00;;;2.03;;
32080;SDS011;18593;51.426;7.030;2023-05-07T09:46:42;5.47;;;2.35;;
32080;SDS011;18593;51.426;7.030;2023-05-07T09:49:20;4.35;;;2.35;;
32080;SDS011;18593;51.426;7.030;2023-05-07T09:51:56;6.70;;;2.00;;
32080;SDS011;18593;51.426;7.030;2023-05-07T09:54:26;4.85;;;2.03;;
32080;SDS011;18593;51.426;7.030;2023-05-07T09:56:55;5.97;;;2.15;;
32080;SDS011;18593;51.426;7.030;2023-05-07T09:59:26;6.40;;;1.98;;
32080;SDS011;18593;51.426;7.030;2023-05-07T10:01:55;4.10;;;2.25;;
32080;SDS011;18593;51.426;7.030;2023-05-07T10:04:26;4.95;;;2.63;;
32080;SDS011;18593;51.426;7.030;2023-05-07T10:06:53;4.13;;;2.35;;
32080;SDS011;18593;51.426;7.030;2023-05-07T10:09:22;4.22;;;2.25;;
32080;SDS011;18593;51.426;7.030;2023-05-07T10:11:50;6.22;;;2.25;;
32080;SDS011;18593;51.426;7.030;2023-05-07T10:14:20;5.30;;;2.67;;
32080;SDS011;18593;51.426;7.030;2023-05-07T10:16:48;5.00;;;2.55;;
32080;SDS011;18593;51.426;7.030;2023-05-07T10:19:16;6.82;;;2.65;;
32080;SDS011;18593;51.426;7.030;2023-05-07T10:21:54;4.82;;;2.30;;
32080;SDS011;18593;51.426;7.030;2023-05-07T10:24:26;6.05;;;2.83;;
32080;SDS011;18593;51.426;7.030;2023-05-07T10:27:00;6.53;;;3.55;;
32080;SDS011;18593;51.426;7.030;2023-05-07T10:29:33;5.47;;;3.43;;
32080;SDS011;18593;51.426;7.030;2023-05-07T10:32:11;6.57;;;3.30;;
32080;SDS011;18593;51.426;7.030;2023-05-07T10:34:56;8.30;;;3.42;;
32080;SDS011;18593;51.426;7.030;2023-05-07T10:37:29;6.20;;;2.88;;
32080;SDS011;18593;51.426;7.030;2023-05-07T10:39:57;9.10;;;3.13;;
32080;SDS011;18593;51.426;7.030;2023-05-07T10:42:28;7.70;;;3.30;;
32080;SDS011;18593;51.426;7.030;2023-05-07T10:44:55;5.13;;;2.65;;
32080;SDS011;18593;51.426;7.030;2023-05-07T10:47:28;5.72;;;2.65;;
32080;SDS011;18593;51.426;7.030;2023-05-07T10:56:25;6.20;;;3.20;;
32080;SDS011;18593;51.426;7.030;2023-05-07T11:02:14;7.70;;;3.20;;
32080;SDS011;18593;51.426;7.030;2023-05-07T11:07:53;6.18;;;3.33;;
32080;SDS011;18593;51.426;7.030;2023-05-07T11:10:26;5.63;;;3.13;;
32080;SDS011;18593;51.426;7.030;2023-05-07T11:13:56;5.18;;;2.90;;
32080;SDS011;18593;51.426;7.030;2023-05-07T11:16:34;7.35;;;3.55;;
32080;SDS011;18593;51.426;7.030;2023-05-07T11:19:17;6.70;;;3.30;;
32080;SDS011;18593;51.426;7.030;2023-05-07T11:22:04;5.38;;;2.90;;
32080;SDS011;18593;51.426;7.030;2023-05-07T11:25:02;6.47;;;3.40;;
32080;SDS011;18593;51.426;7.030;2023-05-07T11:27:32;6.43;;;3.15;;
32080;SDS011;18593;51.426;7.030;2023-05-07T11:30:00;5.03;;;2.53;;
32080;SDS011;18593;51.426;7.030;2023-05-07T11:32:37;7.53;;;3.47;;
32080;SDS011;18593;51.426;7.030;2023-05-07T11:35:06;4.95;;;2.90;;
32080;SDS011;18593;51.426;7.030;2023-05-07T11:37:35;4.55;;;2.90;;
32080;SDS011;18593;51.426;7.030;2023-05-07T11:40:04;6.18;;;3.42;;
32080;SDS011;18593;51.426;7.030;2023-05-07T11:42:37;6.32;;;3.47;;
32080;SDS011;18593;51.426;7.030;2023-05-07T11:45:06;6.68;;;3.40;;
32080;SDS011;18593;51.426;7.030;2023-05-07T11:47:35;8.55;;;3.42;;
32080;SDS011;18593;51.426;7.030;2023-05-07T11:50:03;5.85;;;3.45;;
32080;SDS011;18593;51.426;7.030;2023-05-07T11:52:36;5.93;;;3.03;;
32080;SDS011;18593;51.426;7.030;2023-05-07T11:55:24;7.13;;;3.25;;
32080;SDS011;18593;51.426;7.030;2023-05-07T11:57:52;9.07;;;3.75;;
32080;SDS011;18593;51.426;7.030;2023-05-07T12:00:20;6.50;;;3.70;;
32080;SDS011;18593;51.426;7.030;2023-05-07T12:02:47;7.18;;;4.18;;
32080;SDS011;18593;51.426;7.030;2023-05-07T12:05:14;7.88;;;4.40;;
32080;SDS011;18593;51.426;7.030;2023-05-07T12:07:42;6.47;;;3.53;;
32080;SDS011;18593;51.426;7.030;2023-05-07T12:10:11;7.20;;;3.80;;
32080;SDS011;18593;51.426;7.030;2023-05-07T12:12:39;6.53;;;4.13;;
32080;SDS011;18593;51.426;7.030;2023-05-07T12:15:16;9.68;;;3.95;;
32080;SDS011;18593;51.426;7.030;2023-05-07T12:17:48;8.02;;;4.03;;
32080;SDS011;18593;51.426;7.030;2023-05-07T12:20:17;5.45;;;4.03;;
32080;SDS011;18593;51.426;7.030;2023-05-07T12:22:45;5.05;;;3.42;;
32080;SDS011;18593;51.426;7.030;2023-05-07T12:25:18;7.00;;;3.95;;
32080;SDS011;18593;51.426;7.030;2023-05-07T12:27:50;7.45;;;3.72;;
32080;SDS011;18593;51.426;7.030;2023-05-07T12:30:20;6.10;;;3.90;;
32080;SDS011;18593;51.426;7.030;2023-05-07T12:32:47;5.93;;;3.75;;
32080;SDS011;18593;51.426;7.030;2023-05-07T12:35:25;9.65;;;4.18;;
32080;SDS011;18593;51.426;7.030;2023-05-07T12:37:57;6.93;;;3.67;;
32080;SDS011;18593;51.426;7.030;2023-05-07T12:40:33;7.47;;;4.22;;
32080;SDS011;18593;51.426;7.030;2023-05-07T12:43:02;8.35;;;4.70;;
32080;SDS011;18593;51.426;7.030;2023-05-07T12:45:31;7.65;;;4.68;;
32080;SDS011;18593;51.426;7.030;2023-05-07T12:48:04;6.97;;;4.22;;
32080;SDS011;18593;51.426;7.030;2023-05-07T12:50:32;7.55;;;4.85;;
32080;SDS011;18593;51.426;7.030;2023-05-07T12:53:00;9.85;;;4.78;;
32080;SDS011;18593;51.426;7.030;2023-05-07T12:55:31;7.93;;;5.07;;
32080;SDS011;18593;51.426;7.030;2023-05-07T12:58:06;6.78;;;4.88;;
32080;SDS011;18593;51.426;7.030;2023-05-07T13:00:35;8.68;;;4.97;;
32080;SDS011;18593;51.426;7.030;2023-05-07T13:03:04;8.52;;;5.55;;
32080;SDS011;18593;51.426;7.030;2023-05-07T13:05:31;7.72;;;5.22;;
32080;SDS011;18593;51.426;7.030;2023-05-07T13:07:58;7.32;;;4.93;;
32080;SDS011;18593;51.426;7.030;2023-05-07T13:10:26;8.52;;;5.50;;
32080;SDS011;18593;51.426;7.030;2023-05-07T13:12:54;8.98;;;5.07;;
32080;SDS011;18593;51.426;7.030;2023-05-07T13:15:21;9.73;;;6.55;;
32080;SDS011;18593;51.426;7.030;2023-05-07T13:17:50;8.82;;;6.25;;
32080;SDS011;18593;51.426;7.030;2023-05-07T13:20:17;9.15;;;6.10;;
32080;SDS011;18593;51.426;7.030;2023-05-07T13:22:47;8.93;;;5.93;;
32080;SDS011;18593;51.426;7.030;2023-05-07T13:25:15;13.63;;;6.47;;
32080;SDS011;18593;51.426;7.030;2023-05-07T13:27:42;10.25;;;5.78;;
32080;SDS011;18593;51.426;7.030;2023-05-07T13:30:10;8.93;;;6.13;;
32080;SDS011;18593;51.426;7.030;2023-05-07T13:32:37;10.68;;;6.30;;
32080;SDS011;18593;51.426;7.030;2023-05-07T13:35:07;11.73;;;6.88;;
32080;SDS011;18593;51.426;7.030;2023-05-07T13:37:34;10.80;;;6.45;;
32080;SDS011;18593;51.426;7.030;2023-05-07T13:40:02;9.90;;;6.40;;
32080;SDS011;18593;51.426;7.030;2023-05-07T13:42:30;13.82;;;7.20;;
32080;SDS011;18593;51.426;7.030;2023-05-07T13:44:58;11.57;;;6.60;;
32080;SDS011;18593;51.426;7.030;2023-05-07T13:47:25;8.02;;;6.28;;
32080;SDS011;18593;51.426;7.030;2023-05-07T13:49:53;12.25;;;6.68;;
32080;SDS011;18593;51.426;7.030;2023-05-07T13:52:21;12.93;;;6.30;;
32080;SDS011;18593;51.426;7.030;2023-05-07T13:54:48;10.27;;;6.45;;
32080;SDS011;18593;51.426;7.030;2023-05-07T13:57:17;8.23;;;6.35;;
32080;SDS011;18593;51.426;7.030;2023-05-07T13:59:45;9.18;;;6.00;;
32080;SDS011;18593;51.426;7.030;2023-05-07T14:02:12;9.32;;;6.90;;
32080;SDS011;18593;51.426;7.030;2023-05-07T14:04:40;11.27;;;6.95;;
32080;SDS011;18593;51.426;7.030;2023-05-07T14:07:07;9.45;;;6.30;;
32080;SDS011;18593;51.426;7.030;2023-05-07T14:09:36;10.25;;;6.88;;
32080;SDS011;18593;51.426;7.030;2023-05-07T14:12:03;13.50;;;7.25;;
32080;SDS011;18593;51.426;7.030;2023-05-07T14:14:31;11.25;;;7.30;;
32080;SDS011;18593;51.426;7.030;2023-05-07T14:16:58;14.48;;;7.85;;
32080;SDS011;18593;51.426;7.030;2023-05-07T14:19:26;12.27;;;7.63;;
32080;SDS011;18593;51.426;7.030;2023-05-07T14:21:53;18.52;;;8.80;;
32080;SDS011;18593;51.426;7.030;2023-05-07T14:24:20;11.40;;;7.25;;
32080;SDS011;18593;51.426;7.030;2023-05-07T14:26:49;12.75;;;8.20;;
32080;SDS011;18593;51.426;7.030;2023-05-07T14:29:16;11.50;;;8.57;;
32080;SDS011;18593;51.426;7.030;2023-05-07T14:31:44;14.73;;;9.23;;
32080;SDS011;18593;51.426;7.030;2023-05-07T14:34:11;13.80;;;8.50;;
32080;SDS011;18593;51.426;7.030;2023-05-07T14:36:38;13.57;;;8.68;;
32080;SDS011;18593;51.426;7.030;2023-05-07T14:39:05;14.57;;;8.38;;
32080;SDS011;18593;51.426;7.030;2023-05-07T14:41:33;14.73;;;9.43;;
32080;SDS011;18593;51.426;7.030;2023-05-07T14:44:01;16.30;;;9.90;;
32080;SDS011;18593;51.426;7.030;2023-05-07T14:46:29;13.25;;;9.07;;
32080;SDS011;18593;51.426;7.030;2023-05-07T14:48:56;14.35;;;9.48;;
32080;SDS011;18593;51.426;7.030;2023-05-07T14:51:24;13.52;;;9.55;;
32080;SDS011;18593;51.426;7.030;2023-05-07T14:53:53;16.15;;;10.30;;
32080;SDS011;18593;51.426;7.030;2023-05-07T14:56:20;13.70;;;9.45;;
32080;SDS011;18593;51.426;7.030;2023-05-07T14:58:47;12.65;;;8.40;;
32080;SDS011;18593;51.426;7.030;2023-05-07T15:01:16;11.88;;;9.20;;
32080;SDS011;18593;51.426;7.030;2023-05-07T15:03:43;15.43;;;9.80;;
32080;SDS011;18593;51.426;7.030;2023-05-07T15:06:11;11.32;;;8.63;;
32080;SDS011;18593;51.426;7.030;2023-05-07T15:08:38;15.60;;;8.77;;